Meiryu Maru — JD2358 — position and weather

sailwx.info

Track history (hours):
 
Tides and Currents Weather Stations Pressure Air Temp Water Temp Dewpoint Dewpoint Depression Visibility Wind Speed Wind Dir Waves Ship Positions

Meiryu Maru

Last reported at 2017-Oct-20 23:26 UTC. Time now 2017-Oct-22 17:18 UTC.
Position N 34°37' E 134°54'.

Length 76 m; draft 4 m.

Type: Cargo ship. MMSI: 431000206.

Date/timePositionNaut miles runAvg speedWind from/ knotsBaromVisibWave heightAir tempDewpointWater temp
2017-Oct-20 23:26N 34°37' E 134°54'715.0
2017-Oct-20 23:00N 34°37' E 135°02'610.8
2017-Oct-20 22:29N 34°32' E 135°04'1412.5
2017-Oct-20 21:24N 34°19' E 134°60'612.4
2017-Oct-20 20:57N 34°13' E 134°60'  
2017-Oct-17 07:01N 34°02' E 135°01'111.6
2017-Oct-17 06:57N 34°02' E 135°00'511.5
2017-Oct-17 06:30N 34°08' E 135°00'612.1
2017-Oct-17 06:00N 34°14' E 134°59'812.3
2017-Oct-17 05:21N 34°22' E 134°60'512.0
2017-Oct-17 04:54N 34°27' E 135°01'511.7
2017-Oct-17 04:30N 34°31' E 135°02'611.4
2017-Oct-17 03:59N 34°37' E 135°00'912.6
2017-Oct-17 03:14N 34°40' E 134°50'4 0.1
2017-Oct-14 23:30N 34°37' E 134°53'510.6
2017-Oct-14 22:59N 34°38' E 135°00'510.7
2017-Oct-14 22:30N 34°35' E 135°05'611.7
2017-Oct-14 22:00N 34°29' E 135°04'1010.6
2017-Oct-14 21:03N 34°19' E 135°01'511.2
2017-Oct-14 20:35N 34°14' E 134°59'110.8
2017-Oct-14 20:30N 34°13' E 134°59'  
Track history (hours):
 
Tides and Currents Weather Stations Pressure Air Temp Water Temp Dewpoint Dewpoint Depression Visibility Wind Speed Wind Dir Waves Ship Positions

Meiryu Maru

Last reported at 2017-Oct-20 23:26 UTC. Time now 2017-Oct-22 17:18 UTC.
Position N 34°37' E 134°54'.

Length 76 m; draft 4 m.

Type: Cargo ship. MMSI: 431000206.

Date/timePositionNaut miles runAvg speedWind from/ knotsBaromVisibWave heightAir tempDewpointWater temp
2017-Oct-20 23:26N 34°37' E 134°54'715.0
2017-Oct-20 23:00N 34°37' E 135°02'610.8
2017-Oct-20 22:29N 34°32' E 135°04'1412.5
2017-Oct-20 21:24N 34°19' E 134°60'612.4
2017-Oct-20 20:57N 34°13' E 134°60'  
2017-Oct-17 07:01N 34°02' E 135°01'111.6
2017-Oct-17 06:57N 34°02' E 135°00'511.5
2017-Oct-17 06:30N 34°08' E 135°00'612.1
2017-Oct-17 06:00N 34°14' E 134°59'812.3
2017-Oct-17 05:21N 34°22' E 134°60'512.0
2017-Oct-17 04:54N 34°27' E 135°01'511.7
2017-Oct-17 04:30N 34°31' E 135°02'611.4
2017-Oct-17 03:59N 34°37' E 135°00'912.6
2017-Oct-17 03:14N 34°40' E 134°50'4 0.1
2017-Oct-14 23:30N 34°37' E 134°53'510.6
2017-Oct-14 22:59N 34°38' E 135°00'510.7
2017-Oct-14 22:30N 34°35' E 135°05'611.7
2017-Oct-14 22:00N 34°29' E 135°04'1010.6
2017-Oct-14 21:03N 34°19' E 135°01'511.2
2017-Oct-14 20:35N 34°14' E 134°59'110.8
2017-Oct-14 20:30N 34°13' E 134°59'  

Dump ship's entire track history